sensor_id;sensor_type;location;lat;lon;timestamp;P1;durP1;ratioP1;P2;durP2;ratioP2
50367;SDS011;36281;34.132;-118.018;2023-11-21T00:02:16;16.73;;;3.35;;
50367;SDS011;36281;34.132;-118.018;2023-11-21T00:04:47;12.65;;;2.70;;
50367;SDS011;36281;34.132;-118.018;2023-11-21T00:07:24;11.88;;;2.72;;
50367;SDS011;36281;34.132;-118.018;2023-11-21T00:09:55;12.50;;;3.10;;
50367;SDS011;36281;34.132;-118.018;2023-11-21T00:12:24;10.45;;;2.90;;
50367;SDS011;36281;34.132;-118.018;2023-11-21T00:14:59;6.95;;;2.85;;
50367;SDS011;36281;34.132;-118.018;2023-11-21T00:17:41;15.82;;;3.42;;
50367;SDS011;36281;34.132;-118.018;2023-11-21T00:20:11;14.00;;;3.05;;
50367;SDS011;36281;34.132;-118.018;2023-11-21T00:22:42;11.07;;;2.97;;
50367;SDS011;36281;34.132;-118.018;2023-11-21T00:25:13;10.20;;;3.03;;
50367;SDS011;36281;34.132;-118.018;2023-11-21T00:27:46;13.00;;;2.88;;
50367;SDS011;36281;34.132;-118.018;2023-11-21T00:30:23;15.65;;;3.97;;
50367;SDS011;36281;34.132;-118.018;2023-11-21T00:32:58;16.45;;;4.30;;
50367;SDS011;36281;34.132;-118.018;2023-11-21T00:35:31;12.65;;;3.47;;
50367;SDS011;36281;34.132;-118.018;2023-11-21T00:38:01;9.07;;;3.22;;
50367;SDS011;36281;34.132;-118.018;2023-11-21T00:40:34;8.52;;;2.85;;
50367;SDS011;36281;34.132;-118.018;2023-11-21T00:43:06;12.50;;;3.00;;
50367;SDS011;36281;34.132;-118.018;2023-11-21T00:45:40;13.10;;;3.57;;
50367;SDS011;36281;34.132;-118.018;2023-11-21T00:48:13;17.33;;;4.20;;
50367;SDS011;36281;34.132;-118.018;2023-11-21T00:50:43;15.52;;;4.22;;
50367;SDS011;36281;34.132;-118.018;2023-11-21T00:53:27;14.32;;;3.50;;
50367;SDS011;36281;34.132;-118.018;2023-11-21T00:55:57;14.77;;;3.55;;
50367;SDS011;36281;34.132;-118.018;2023-11-21T00:58:27;12.20;;;3.78;;
50367;SDS011;36281;34.132;-118.018;2023-11-21T01:00:59;17.98;;;4.10;;
50367;SDS011;36281;34.132;-118.018;2023-11-21T01:03:34;14.70;;;3.60;;
50367;SDS011;36281;34.132;-118.018;2023-11-21T01:06:06;11.85;;;3.50;;
50367;SDS011;36281;34.132;-118.018;2023-11-21T01:08:43;13.45;;;3.63;;
50367;SDS011;36281;34.132;-118.018;2023-11-21T01:11:13;13.45;;;4.32;;
50367;SDS011;36281;34.132;-118.018;2023-11-21T01:13:43;11.65;;;4.45;;
50367;SDS011;36281;34.132;-118.018;2023-11-21T01:16:16;18.20;;;5.53;;
50367;SDS011;36281;34.132;-118.018;2023-11-21T01:18:54;14.32;;;4.32;;
50367;SDS011;36281;34.132;-118.018;2023-11-21T01:21:25;11.00;;;4.13;;
50367;SDS011;36281;34.132;-118.018;2023-11-21T01:23:59;9.98;;;4.18;;
50367;SDS011;36281;34.132;-118.018;2023-11-21T01:26:30;12.18;;;4.30;;
50367;SDS011;36281;34.132;-118.018;2023-11-21T01:29:01;13.55;;;4.00;;
50367;SDS011;36281;34.132;-118.018;2023-11-21T01:31:33;13.48;;;4.00;;
50367;SDS011;36281;34.132;-118.018;2023-11-21T01:34:04;9.93;;;3.70;;
50367;SDS011;36281;34.132;-118.018;2023-11-21T01:36:36;12.23;;;3.70;;
50367;SDS011;36281;34.132;-118.018;2023-11-21T01:39:07;8.35;;;3.50;;
50367;SDS011;36281;34.132;-118.018;2023-11-21T01:41:46;15.80;;;4.80;;
50367;SDS011;36281;34.132;-118.018;2023-11-21T01:44:44;22.55;;;5.38;;
50367;SDS011;36281;34.132;-118.018;2023-11-21T01:47:28;14.07;;;4.95;;
50367;SDS011;36281;34.132;-118.018;2023-11-21T01:50:05;16.08;;;5.65;;
50367;SDS011;36281;34.132;-118.018;2023-11-21T01:52:40;14.07;;;5.30;;
50367;SDS011;36281;34.132;-118.018;2023-11-21T01:55:15;15.75;;;4.85;;
50367;SDS011;36281;34.132;-118.018;2023-11-21T01:57:55;15.35;;;5.00;;
50367;SDS011;36281;34.132;-118.018;2023-11-21T02:00:30;12.13;;;4.22;;
50367;SDS011;36281;34.132;-118.018;2023-11-21T02:03:04;13.80;;;4.43;;
50367;SDS011;36281;34.132;-118.018;2023-11-21T02:05:43;10.45;;;4.00;;
50367;SDS011;36281;34.132;-118.018;2023-11-21T02:08:15;11.57;;;4.43;;
50367;SDS011;36281;34.132;-118.018;2023-11-21T02:10:46;11.35;;;4.00;;
50367;SDS011;36281;34.132;-118.018;2023-11-21T02:13:17;9.05;;;4.00;;
50367;SDS011;36281;34.132;-118.018;2023-11-21T02:15:54;15.10;;;4.13;;
50367;SDS011;36281;34.132;-118.018;2023-11-21T02:18:32;12.65;;;4.38;;
50367;SDS011;36281;34.132;-118.018;2023-11-21T02:21:07;16.50;;;4.78;;
50367;SDS011;36281;34.132;-118.018;2023-11-21T02:23:41;13.00;;;4.30;;
50367;SDS011;36281;34.132;-118.018;2023-11-21T02:26:44;10.32;;;3.88;;
50367;SDS011;36281;34.132;-118.018;2023-11-21T02:29:33;14.70;;;4.00;;
50367;SDS011;36281;34.132;-118.018;2023-11-21T02:32:06;14.77;;;4.07;;
50367;SDS011;36281;34.132;-118.018;2023-11-21T02:35:00;7.68;;;3.72;;
50367;SDS011;36281;34.132;-118.018;2023-11-21T02:37:40;8.05;;;3.58;;
50367;SDS011;36281;34.132;-118.018;2023-11-21T02:40:25;12.10;;;3.60;;
50367;SDS011;36281;34.132;-118.018;2023-11-21T02:42:56;8.38;;;3.63;;
50367;SDS011;36281;34.132;-118.018;2023-11-21T02:45:40;10.40;;;3.92;;
50367;SDS011;36281;34.132;-118.018;2023-11-21T02:48:30;20.92;;;3.90;;
50367;SDS011;36281;34.132;-118.018;2023-11-21T02:51:02;11.68;;;3.40;;
50367;SDS011;36281;34.132;-118.018;2023-11-21T02:53:34;12.73;;;4.03;;
50367;SDS011;36281;34.132;-118.018;2023-11-21T02:56:14;10.77;;;4.03;;
50367;SDS011;36281;34.132;-118.018;2023-11-21T03:01:14;9.80;;;3.78;;
50367;SDS011;36281;34.132;-118.018;2023-11-21T03:03:50;13.07;;;4.13;;
50367;SDS011;36281;34.132;-118.018;2023-11-21T03:06:20;15.05;;;4.43;;
50367;SDS011;36281;34.132;-118.018;2023-11-21T03:08:54;8.30;;;4.03;;
50367;SDS011;36281;34.132;-118.018;2023-11-21T03:11:30;12.23;;;4.60;;
50367;SDS011;36281;34.132;-118.018;2023-11-21T03:14:09;14.70;;;4.10;;
50367;SDS011;36281;34.132;-118.018;2023-11-21T03:16:43;10.63;;;4.43;;
50367;SDS011;36281;34.132;-118.018;2023-11-21T03:19:21;9.75;;;4.22;;
50367;SDS011;36281;34.132;-118.018;2023-11-21T03:21:58;10.43;;;4.07;;
50367;SDS011;36281;34.132;-118.018;2023-11-21T03:24:30;12.68;;;4.00;;
50367;SDS011;36281;34.132;-118.018;2023-11-21T03:27:07;14.32;;;3.95;;
50367;SDS011;36281;34.132;-118.018;2023-11-21T03:29:48;14.05;;;4.32;;
50367;SDS011;36281;34.132;-118.018;2023-11-21T03:32:18;13.02;;;4.55;;
50367;SDS011;36281;34.132;-118.018;2023-11-21T03:34:53;10.63;;;3.92;;
50367;SDS011;36281;34.132;-118.018;2023-11-21T03:37:24;10.05;;;4.43;;
50367;SDS011;36281;34.132;-118.018;2023-11-21T03:39:55;12.05;;;4.88;;
50367;SDS011;36281;34.132;-118.018;2023-11-21T03:42:26;12.38;;;5.80;;
50367;SDS011;36281;34.132;-118.018;2023-11-21T03:44:55;13.23;;;4.78;;
50367;SDS011;36281;34.132;-118.018;2023-11-21T03:47:25;10.65;;;4.57;;
50367;SDS011;36281;34.132;-118.018;2023-11-21T03:49:54;13.52;;;4.85;;
50367;SDS011;36281;34.132;-118.018;2023-11-21T03:52:24;13.43;;;5.00;;
50367;SDS011;36281;34.132;-118.018;2023-11-21T04:00:12;11.52;;;4.35;;
50367;SDS011;36281;34.132;-118.018;2023-11-21T04:02:57;11.15;;;4.47;;
50367;SDS011;36281;34.132;-118.018;2023-11-21T04:05:37;13.50;;;4.55;;
50367;SDS011;36281;34.132;-118.018;2023-11-21T04:08:12;11.50;;;4.50;;
50367;SDS011;36281;34.132;-118.018;2023-11-21T04:10:43;10.27;;;4.68;;
50367;SDS011;36281;34.132;-118.018;2023-11-21T04:13:23;10.25;;;4.18;;
50367;SDS011;36281;34.132;-118.018;2023-11-21T04:16:12;9.77;;;4.03;;
50367;SDS011;36281;34.132;-118.018;2023-11-21T04:18:44;9.63;;;4.03;;
50367;SDS011;36281;34.132;-118.018;2023-11-21T04:21:26;11.70;;;3.95;;
50367;SDS011;36281;34.132;-118.018;2023-11-21T04:23:58;10.68;;;3.70;;
50367;SDS011;36281;34.132;-118.018;2023-11-21T04:26:36;6.55;;;3.60;;
50367;SDS011;36281;34.132;-118.018;2023-11-21T04:29:40;10.35;;;3.83;;
50367;SDS011;36281;34.132;-118.018;2023-11-21T04:32:25;8.35;;;3.70;;
50367;SDS011;36281;34.132;-118.018;2023-11-21T04:34:57;8.60;;;3.78;;
50367;SDS011;36281;34.132;-118.018;2023-11-21T04:37:39;13.18;;;3.97;;
50367;SDS011;36281;34.132;-118.018;2023-11-21T04:40:10;9.75;;;4.18;;
50367;SDS011;36281;34.132;-118.018;2023-11-21T04:42:41;14.13;;;4.70;;
50367;SDS011;36281;34.132;-118.018;2023-11-21T04:45:22;10.27;;;4.15;;
50367;SDS011;36281;34.132;-118.018;2023-11-21T04:47:56;17.33;;;4.15;;
50367;SDS011;36281;34.132;-118.018;2023-11-21T04:50:27;9.55;;;3.92;;
50367;SDS011;36281;34.132;-118.018;2023-11-21T04:53:05;13.40;;;4.70;;
50367;SDS011;36281;34.132;-118.018;2023-11-21T04:55:35;9.30;;;3.95;;
50367;SDS011;36281;34.132;-118.018;2023-11-21T04:58:07;9.43;;;4.00;;
50367;SDS011;36281;34.132;-118.018;2023-11-21T05:00:38;8.60;;;3.72;;
50367;SDS011;36281;34.132;-118.018;2023-11-21T05:03:11;9.95;;;4.20;;
50367;SDS011;36281;34.132;-118.018;2023-11-21T05:05:42;10.43;;;4.65;;
50367;SDS011;36281;34.132;-118.018;2023-11-21T05:08:12;9.65;;;5.05;;
50367;SDS011;36281;34.132;-118.018;2023-11-21T05:10:44;9.27;;;5.10;;
50367;SDS011;36281;34.132;-118.018;2023-11-21T05:13:14;14.75;;;5.60;;
50367;SDS011;36281;34.132;-118.018;2023-11-21T05:15:46;10.52;;;5.30;;
50367;SDS011;36281;34.132;-118.018;2023-11-21T05:18:18;13.23;;;4.60;;
50367;SDS011;36281;34.132;-118.018;2023-11-21T05:20:48;12.50;;;4.47;;
50367;SDS011;36281;34.132;-118.018;2023-11-21T05:23:18;10.20;;;4.60;;
50367;SDS011;36281;34.132;-118.018;2023-11-21T05:25:55;16.42;;;5.20;;
50367;SDS011;36281;34.132;-118.018;2023-11-21T05:28:36;11.27;;;5.00;;
50367;SDS011;36281;34.132;-118.018;2023-11-21T05:31:06;22.05;;;5.93;;
50367;SDS011;36281;34.132;-118.018;2023-11-21T05:33:46;14.70;;;6.07;;
50367;SDS011;36281;34.132;-118.018;2023-11-21T05:36:19;9.57;;;4.93;;
50367;SDS011;36281;34.132;-118.018;2023-11-21T05:38:51;9.52;;;4.75;;
50367;SDS011;36281;34.132;-118.018;2023-11-21T05:41:26;14.65;;;5.15;;
50367;SDS011;36281;34.132;-118.018;2023-11-21T05:43:59;15.00;;;5.05;;
50367;SDS011;36281;34.132;-118.018;2023-11-21T05:46:35;11.30;;;4.88;;
50367;SDS011;36281;34.132;-118.018;2023-11-21T05:49:16;10.45;;;4.50;;
50367;SDS011;36281;34.132;-118.018;2023-11-21T05:51:52;13.45;;;5.43;;
50367;SDS011;36281;34.132;-118.018;2023-11-21T05:54:27;15.98;;;4.75;;
50367;SDS011;36281;34.132;-118.018;2023-11-21T05:56:57;14.52;;;5.07;;
50367;SDS011;36281;34.132;-118.018;2023-11-21T05:59:32;12.32;;;4.65;;
50367;SDS011;36281;34.132;-118.018;2023-11-21T06:02:09;9.70;;;4.70;;
50367;SDS011;36281;34.132;-118.018;2023-11-21T06:04:46;11.50;;;4.68;;
50367;SDS011;36281;34.132;-118.018;2023-11-21T06:07:33;13.60;;;4.97;;
50367;SDS011;36281;34.132;-118.018;2023-11-21T06:10:17;9.60;;;4.47;;
50367;SDS011;36281;34.132;-118.018;2023-11-21T06:12:48;10.57;;;4.22;;
50367;SDS011;36281;34.132;-118.018;2023-11-21T06:15:18;8.38;;;4.70;;
50367;SDS011;36281;34.132;-118.018;2023-11-21T06:17:51;9.32;;;4.15;;
50367;SDS011;36281;34.132;-118.018;2023-11-21T06:20:26;11.75;;;4.68;;
50367;SDS011;36281;34.132;-118.018;2023-11-21T06:22:57;14.00;;;4.25;;
50367;SDS011;36281;34.132;-118.018;2023-11-21T06:25:32;8.55;;;3.90;;
50367;SDS011;36281;34.132;-118.018;2023-11-21T06:28:12;15.23;;;4.32;;
50367;SDS011;36281;34.132;-118.018;2023-11-21T06:31:08;7.22;;;3.67;;
50367;SDS011;36281;34.132;-118.018;2023-11-21T06:34:07;9.90;;;3.78;;
50367;SDS011;36281;34.132;-118.018;2023-11-21T06:36:42;10.60;;;4.10;;
50367;SDS011;36281;34.132;-118.018;2023-11-21T06:39:13;9.75;;;4.18;;
50367;SDS011;36281;34.132;-118.018;2023-11-21T06:41:59;9.07;;;3.97;;
50367;SDS011;36281;34.132;-118.018;2023-11-21T06:44:39;10.00;;;3.90;;
50367;SDS011;36281;34.132;-118.018;2023-11-21T06:47:15;7.55;;;3.55;;
50367;SDS011;36281;34.132;-118.018;2023-11-21T06:49:47;7.55;;;3.60;;
50367;SDS011;36281;34.132;-118.018;2023-11-21T06:52:30;15.30;;;3.33;;
50367;SDS011;36281;34.132;-118.018;2023-11-21T06:55:00;9.18;;;3.90;;
50367;SDS011;36281;34.132;-118.018;2023-11-21T06:57:37;8.45;;;3.53;;
50367;SDS011;36281;34.132;-118.018;2023-11-21T07:00:22;7.47;;;3.30;;
50367;SDS011;36281;34.132;-118.018;2023-11-21T07:02:53;8.80;;;3.67;;
50367;SDS011;36281;34.132;-118.018;2023-11-21T07:05:23;8.13;;;3.25;;
50367;SDS011;36281;34.132;-118.018;2023-11-21T07:07:57;6.85;;;3.47;;
50367;SDS011;36281;34.132;-118.018;2023-11-21T07:10:33;12.10;;;3.67;;
50367;SDS011;36281;34.132;-118.018;2023-11-21T07:13:06;6.88;;;3.50;;
50367;SDS011;36281;34.132;-118.018;2023-11-21T07:15:41;5.45;;;2.90;;
50367;SDS011;36281;34.132;-118.018;2023-11-21T07:18:14;6.13;;;2.95;;
50367;SDS011;36281;34.132;-118.018;2023-11-21T07:20:44;6.95;;;3.20;;
50367;SDS011;36281;34.132;-118.018;2023-11-21T07:23:17;5.70;;;2.80;;
50367;SDS011;36281;34.132;-118.018;2023-11-21T07:25:47;9.07;;;3.50;;
50367;SDS011;36281;34.132;-118.018;2023-11-21T07:28:18;8.02;;;3.60;;
50367;SDS011;36281;34.132;-118.018;2023-11-21T07:30:49;9.50;;;3.63;;
50367;SDS011;36281;34.132;-118.018;2023-11-21T07:33:21;9.02;;;3.80;;
50367;SDS011;36281;34.132;-118.018;2023-11-21T07:35:51;10.30;;;3.25;;
50367;SDS011;36281;34.132;-118.018;2023-11-21T07:38:24;6.88;;;3.28;;
50367;SDS011;36281;34.132;-118.018;2023-11-21T07:40:54;7.82;;;3.22;;
50367;SDS011;36281;34.132;-118.018;2023-11-21T07:43:24;7.72;;;3.35;;
50367;SDS011;36281;34.132;-118.018;2023-11-21T07:45:54;7.85;;;3.42;;
50367;SDS011;36281;34.132;-118.018;2023-11-21T07:48:25;4.32;;;3.15;;
50367;SDS011;36281;34.132;-118.018;2023-11-21T07:50:58;5.82;;;3.13;;
50367;SDS011;36281;34.132;-118.018;2023-11-21T07:56:15;5.60;;;3.10;;
50367;SDS011;36281;34.132;-118.018;2023-11-21T07:58:49;5.30;;;2.90;;
50367;SDS011;36281;34.132;-118.018;2023-11-21T08:01:20;7.25;;;3.40;;
50367;SDS011;36281;34.132;-118.018;2023-11-21T08:03:50;5.50;;;3.00;;
50367;SDS011;36281;34.132;-118.018;2023-11-21T08:06:21;5.45;;;2.92;;
50367;SDS011;36281;34.132;-118.018;2023-11-21T08:08:53;9.65;;;3.42;;
50367;SDS011;36281;34.132;-118.018;2023-11-21T08:11:23;9.70;;;3.45;;
50367;SDS011;36281;34.132;-118.018;2023-11-21T08:13:56;5.90;;;2.95;;
50367;SDS011;36281;34.132;-118.018;2023-11-21T08:16:28;4.43;;;3.30;;
50367;SDS011;36281;34.132;-118.018;2023-11-21T08:19:03;8.55;;;3.50;;
50367;SDS011;36281;34.132;-118.018;2023-11-21T08:21:41;5.55;;;2.67;;
50367;SDS011;36281;34.132;-118.018;2023-11-21T08:24:13;5.32;;;2.72;;
50367;SDS011;36281;34.132;-118.018;2023-11-21T08:26:44;7.47;;;2.85;;
50367;SDS011;36281;34.132;-118.018;2023-11-21T08:29:15;9.23;;;2.95;;
50367;SDS011;36281;34.132;-118.018;2023-11-21T08:31:47;8.38;;;2.72;;
50367;SDS011;36281;34.132;-118.018;2023-11-21T08:34:17;6.60;;;2.90;;
50367;SDS011;36281;34.132;-118.018;2023-11-21T08:36:46;7.40;;;3.05;;
50367;SDS011;36281;34.132;-118.018;2023-11-21T08:39:19;9.32;;;3.40;;
50367;SDS011;36281;34.132;-118.018;2023-11-21T08:41:52;6.40;;;2.90;;
50367;SDS011;36281;34.132;-118.018;2023-11-21T08:44:22;7.03;;;2.65;;
50367;SDS011;36281;34.132;-118.018;2023-11-21T08:46:53;6.88;;;2.90;;
50367;SDS011;36281;34.132;-118.018;2023-11-21T08:49:24;10.38;;;3.38;;
50367;SDS011;36281;34.132;-118.018;2023-11-21T08:51:56;8.45;;;3.13;;
50367;SDS011;36281;34.132;-118.018;2023-11-21T08:54:31;13.43;;;3.45;;
50367;SDS011;36281;34.132;-118.018;2023-11-21T08:57:02;6.28;;;2.72;;
50367;SDS011;36281;34.132;-118.018;2023-11-21T08:59:33;5.55;;;2.90;;
50367;SDS011;36281;34.132;-118.018;2023-11-21T09:02:05;4.32;;;2.63;;
50367;SDS011;36281;34.132;-118.018;2023-11-21T09:04:37;3.92;;;2.63;;
50367;SDS011;36281;34.132;-118.018;2023-11-21T09:07:09;6.05;;;2.53;;
50367;SDS011;36281;34.132;-118.018;2023-11-21T09:09:44;8.23;;;2.80;;
50367;SDS011;36281;34.132;-118.018;2023-11-21T09:12:14;6.30;;;3.13;;
50367;SDS011;36281;34.132;-118.018;2023-11-21T09:14:44;7.70;;;2.80;;
50367;SDS011;36281;34.132;-118.018;2023-11-21T09:17:14;5.55;;;2.63;;
50367;SDS011;36281;34.132;-118.018;2023-11-21T09:19:48;4.85;;;2.80;;
50367;SDS011;36281;34.132;-118.018;2023-11-21T09:22:21;6.88;;;3.00;;
50367;SDS011;36281;34.132;-118.018;2023-11-21T09:24:56;4.72;;;2.65;;
50367;SDS011;36281;34.132;-118.018;2023-11-21T09:27:28;5.65;;;2.70;;
50367;SDS011;36281;34.132;-118.018;2023-11-21T09:29:58;7.47;;;2.90;;
50367;SDS011;36281;34.132;-118.018;2023-11-21T09:32:28;4.03;;;2.65;;
50367;SDS011;36281;34.132;-118.018;2023-11-21T09:34:58;10.90;;;3.10;;
50367;SDS011;36281;34.132;-118.018;2023-11-21T09:37:31;6.68;;;2.80;;
50367;SDS011;36281;34.132;-118.018;2023-11-21T09:40:03;9.05;;;2.65;;
50367;SDS011;36281;34.132;-118.018;2023-11-21T09:42:43;5.47;;;2.63;;
50367;SDS011;36281;34.132;-118.018;2023-11-21T09:45:20;5.07;;;2.75;;
50367;SDS011;36281;34.132;-118.018;2023-11-21T09:47:55;5.95;;;3.10;;
50367;SDS011;36281;34.132;-118.018;2023-11-21T09:50:27;5.15;;;3.00;;
50367;SDS011;36281;34.132;-118.018;2023-11-21T09:53:04;6.95;;;2.92;;
50367;SDS011;36281;34.132;-118.018;2023-11-21T09:55:44;6.18;;;3.30;;
50367;SDS011;36281;34.132;-118.018;2023-11-21T09:58:18;7.25;;;2.88;;
50367;SDS011;36281;34.132;-118.018;2023-11-21T10:00:48;5.38;;;2.55;;
50367;SDS011;36281;34.132;-118.018;2023-11-21T10:03:22;5.10;;;2.50;;
50367;SDS011;36281;34.132;-118.018;2023-11-21T10:05:53;5.15;;;2.80;;
50367;SDS011;36281;34.132;-118.018;2023-11-21T10:08:29;5.72;;;2.78;;
50367;SDS011;36281;34.132;-118.018;2023-11-21T10:11:17;4.30;;;2.60;;
50367;SDS011;36281;34.132;-118.018;2023-11-21T10:13:50;6.32;;;2.80;;
50367;SDS011;36281;34.132;-118.018;2023-11-21T10:16:22;4.75;;;3.00;;
50367;SDS011;36281;34.132;-118.018;2023-11-21T10:18:56;4.05;;;2.75;;
50367;SDS011;36281;34.132;-118.018;2023-11-21T10:21:37;7.28;;;3.00;;
50367;SDS011;36281;34.132;-118.018;2023-11-21T10:24:07;7.00;;;2.88;;
50367;SDS011;36281;34.132;-118.018;2023-11-21T10:26:40;9.00;;;3.55;;
50367;SDS011;36281;34.132;-118.018;2023-11-21T10:29:20;5.20;;;2.70;;
50367;SDS011;36281;34.132;-118.018;2023-11-21T10:31:54;6.07;;;2.92;;
50367;SDS011;36281;34.132;-118.018;2023-11-21T10:34:25;5.60;;;2.63;;
50367;SDS011;36281;34.132;-118.018;2023-11-21T10:36:58;5.25;;;2.50;;
50367;SDS011;36281;34.132;-118.018;2023-11-21T10:39:41;6.47;;;2.70;;
50367;SDS011;36281;34.132;-118.018;2023-11-21T10:42:15;4.57;;;2.63;;
50367;SDS011;36281;34.132;-118.018;2023-11-21T10:44:49;4.13;;;2.40;;
50367;SDS011;36281;34.132;-118.018;2023-11-21T10:47:20;7.30;;;2.20;;
50367;SDS011;36281;34.132;-118.018;2023-11-21T10:49:52;3.75;;;2.03;;
50367;SDS011;36281;34.132;-118.018;2023-11-21T10:52:22;4.20;;;2.20;;
50367;SDS011;36281;34.132;-118.018;2023-11-21T10:54:57;3.83;;;2.33;;
50367;SDS011;36281;34.132;-118.018;2023-11-21T10:57:29;5.05;;;2.15;;
50367;SDS011;36281;34.132;-118.018;2023-11-21T11:00:00;4.97;;;2.20;;
50367;SDS011;36281;34.132;-118.018;2023-11-21T11:02:36;3.00;;;2.10;;
50367;SDS011;36281;34.132;-118.018;2023-11-21T11:05:08;6.20;;;2.78;;
50367;SDS011;36281;34.132;-118.018;2023-11-21T11:07:40;6.82;;;2.65;;
50367;SDS011;36281;34.132;-118.018;2023-11-21T11:10:15;4.68;;;2.50;;
50367;SDS011;36281;34.132;-118.018;2023-11-21T11:12:53;3.70;;;2.20;;
50367;SDS011;36281;34.132;-118.018;2023-11-21T11:15:25;3.90;;;2.40;;
50367;SDS011;36281;34.132;-118.018;2023-11-21T11:17:59;4.20;;;2.58;;
50367;SDS011;36281;34.132;-118.018;2023-11-21T11:20:32;6.88;;;2.70;;
50367;SDS011;36281;34.132;-118.018;2023-11-21T11:23:10;6.72;;;2.53;;
50367;SDS011;36281;34.132;-118.018;2023-11-21T11:26:01;6.30;;;2.80;;
50367;SDS011;36281;34.132;-118.018;2023-11-21T11:28:44;2.83;;;2.30;;
50367;SDS011;36281;34.132;-118.018;2023-11-21T11:31:25;3.58;;;2.30;;
50367;SDS011;36281;34.132;-118.018;2023-11-21T11:34:08;5.82;;;2.40;;
50367;SDS011;36281;34.132;-118.018;2023-11-21T11:36:48;5.00;;;2.33;;
50367;SDS011;36281;34.132;-118.018;2023-11-21T11:39:28;4.20;;;2.17;;
50367;SDS011;36281;34.132;-118.018;2023-11-21T11:42:01;4.00;;;2.22;;
50367;SDS011;36281;34.132;-118.018;2023-11-21T11:44:49;3.20;;;2.30;;
50367;SDS011;36281;34.132;-118.018;2023-11-21T11:47:21;5.40;;;2.08;;
50367;SDS011;36281;34.132;-118.018;2023-11-21T11:50:03;3.72;;;2.70;;
50367;SDS011;36281;34.132;-118.018;2023-11-21T11:52:54;4.05;;;2.33;;
50367;SDS011;36281;34.132;-118.018;2023-11-21T11:55:26;4.57;;;2.30;;
50367;SDS011;36281;34.132;-118.018;2023-11-21T11:57:59;5.38;;;2.50;;
50367;SDS011;36281;34.132;-118.018;2023-11-21T12:00:38;10.88;;;2.90;;
50367;SDS011;36281;34.132;-118.018;2023-11-21T12:03:10;6.68;;;2.65;;
50367;SDS011;36281;34.132;-118.018;2023-11-21T12:05:41;6.13;;;2.67;;
50367;SDS011;36281;34.132;-118.018;2023-11-21T12:08:13;6.63;;;2.50;;
50367;SDS011;36281;34.132;-118.018;2023-11-21T12:10:47;4.20;;;2.55;;
50367;SDS011;36281;34.132;-118.018;2023-11-21T12:13:19;3.95;;;2.53;;
50367;SDS011;36281;34.132;-118.018;2023-11-21T12:15:52;5.35;;;2.33;;
50367;SDS011;36281;34.132;-118.018;2023-11-21T12:18:23;6.57;;;3.00;;
50367;SDS011;36281;34.132;-118.018;2023-11-21T12:20:55;3.25;;;2.42;;
50367;SDS011;36281;34.132;-118.018;2023-11-21T12:23:26;9.38;;;2.70;;
50367;SDS011;36281;34.132;-118.018;2023-11-21T12:25:57;5.07;;;2.47;;
50367;SDS011;36281;34.132;-118.018;2023-11-21T12:28:27;3.60;;;2.50;;
50367;SDS011;36281;34.132;-118.018;2023-11-21T12:31:00;3.50;;;2.55;;
50367;SDS011;36281;34.132;-118.018;2023-11-21T12:33:44;7.35;;;3.10;;
50367;SDS011;36281;34.132;-118.018;2023-11-21T12:36:14;6.07;;;3.10;;
50367;SDS011;36281;34.132;-118.018;2023-11-21T12:38:45;6.35;;;2.72;;
50367;SDS011;36281;34.132;-118.018;2023-11-21T12:41:16;2.83;;;2.22;;
50367;SDS011;36281;34.132;-118.018;2023-11-21T12:43:47;4.90;;;2.53;;
50367;SDS011;36281;34.132;-118.018;2023-11-21T12:46:25;5.50;;;2.63;;
50367;SDS011;36281;34.132;-118.018;2023-11-21T12:48:59;4.13;;;2.40;;
50367;SDS011;36281;34.132;-118.018;2023-11-21T12:51:29;4.70;;;2.70;;
50367;SDS011;36281;34.132;-118.018;2023-11-21T12:54:02;7.20;;;2.90;;
50367;SDS011;36281;34.132;-118.018;2023-11-21T12:56:34;6.25;;;3.00;;
50367;SDS011;36281;34.132;-118.018;2023-11-21T12:59:09;5.35;;;2.83;;
50367;SDS011;36281;34.132;-118.018;2023-11-21T13:01:45;7.15;;;3.05;;
50367;SDS011;36281;34.132;-118.018;2023-11-21T13:04:29;8.40;;;3.53;;
50367;SDS011;36281;34.132;-118.018;2023-11-21T13:07:04;5.57;;;3.22;;
50367;SDS011;36281;34.132;-118.018;2023-11-21T13:09:42;8.93;;;3.22;;
50367;SDS011;36281;34.132;-118.018;2023-11-21T13:12:13;7.45;;;3.30;;
50367;SDS011;36281;34.132;-118.018;2023-11-21T13:14:46;3.58;;;2.65;;
50367;SDS011;36281;34.132;-118.018;2023-11-21T13:17:20;4.38;;;2.55;;
50367;SDS011;36281;34.132;-118.018;2023-11-21T13:19:54;11.00;;;3.28;;
50367;SDS011;36281;34.132;-118.018;2023-11-21T13:22:28;4.57;;;2.88;;
50367;SDS011;36281;34.132;-118.018;2023-11-21T13:25:00;6.90;;;3.17;;
50367;SDS011;36281;34.132;-118.018;2023-11-21T13:27:35;7.40;;;3.50;;
50367;SDS011;36281;34.132;-118.018;2023-11-21T13:30:06;7.05;;;2.80;;
50367;SDS011;36281;34.132;-118.018;2023-11-21T13:32:40;5.70;;;2.90;;
50367;SDS011;36281;34.132;-118.018;2023-11-21T13:35:14;4.55;;;2.70;;
50367;SDS011;36281;34.132;-118.018;2023-11-21T13:37:49;5.22;;;3.08;;
50367;SDS011;36281;34.132;-118.018;2023-11-21T13:40:24;3.85;;;2.42;;
50367;SDS011;36281;34.132;-118.018;2023-11-21T13:42:57;9.60;;;2.90;;
50367;SDS011;36281;34.132;-118.018;2023-11-21T13:45:28;3.65;;;2.47;;
50367;SDS011;36281;34.132;-118.018;2023-11-21T13:48:02;7.47;;;2.70;;
50367;SDS011;36281;34.132;-118.018;2023-11-21T13:50:35;7.73;;;2.90;;
50367;SDS011;36281;34.132;-118.018;2023-11-21T13:53:07;6.05;;;2.90;;
50367;SDS011;36281;34.132;-118.018;2023-11-21T13:55:47;5.63;;;2.63;;
50367;SDS011;36281;34.132;-118.018;2023-11-21T13:58:20;5.88;;;2.72;;
50367;SDS011;36281;34.132;-118.018;2023-11-21T14:01:08;8.57;;;2.80;;
50367;SDS011;36281;34.132;-118.018;2023-11-21T14:04:00;3.58;;;2.67;;
50367;SDS011;36281;34.132;-118.018;2023-11-21T14:06:52;5.72;;;3.05;;
50367;SDS011;36281;34.132;-118.018;2023-11-21T14:09:24;3.53;;;2.35;;
50367;SDS011;36281;34.132;-118.018;2023-11-21T14:12:01;6.03;;;2.65;;
50367;SDS011;36281;34.132;-118.018;2023-11-21T14:14:43;9.35;;;2.75;;
50367;SDS011;36281;34.132;-118.018;2023-11-21T14:17:14;8.85;;;3.13;;
50367;SDS011;36281;34.132;-118.018;2023-11-21T14:19:47;9.60;;;2.80;;
50367;SDS011;36281;34.132;-118.018;2023-11-21T14:22:19;7.63;;;2.80;;
50367;SDS011;36281;34.132;-118.018;2023-11-21T14:24:50;4.80;;;2.70;;
50367;SDS011;36281;34.132;-118.018;2023-11-21T14:27:21;5.68;;;2.40;;
50367;SDS011;36281;34.132;-118.018;2023-11-21T14:29:55;5.30;;;2.50;;
50367;SDS011;36281;34.132;-118.018;2023-11-21T14:32:27;6.93;;;2.83;;
50367;SDS011;36281;34.132;-118.018;2023-11-21T14:35:00;5.03;;;2.38;;
50367;SDS011;36281;34.132;-118.018;2023-11-21T14:37:32;4.22;;;2.70;;
50367;SDS011;36281;34.132;-118.018;2023-11-21T14:40:04;4.88;;;3.03;;
50367;SDS011;36281;34.132;-118.018;2023-11-21T14:42:38;8.20;;;3.30;;
50367;SDS011;36281;34.132;-118.018;2023-11-21T14:45:09;5.50;;;2.95;;
50367;SDS011;36281;34.132;-118.018;2023-11-21T14:47:40;5.78;;;2.65;;
50367;SDS011;36281;34.132;-118.018;2023-11-21T14:50:20;5.68;;;2.70;;
50367;SDS011;36281;34.132;-118.018;2023-11-21T14:53:10;6.53;;;3.42;;
50367;SDS011;36281;34.132;-118.018;2023-11-21T14:55:43;5.90;;;2.70;;
50367;SDS011;36281;34.132;-118.018;2023-11-21T14:58:19;11.18;;;3.88;;